Time;durP1;ratioP1;P1;durP2;ratioP2;P2;SDS_P1;SDS_P2;PMS_P1;PMS_P2;Temp;Humidity;BMP_temperature;BMP_pressure;BME280_temperature;BME280_humidity;BME280_pressure;Samples;Min_cycle;Max_cycle;Signal;HPM_P1;HPM_P2
2023/01/08 00:01:12;;;;;;;29.05;16.52;;;5.00;99.90;;;;;;5030162;28;20105;-69
2023/01/08 00:03:39;;;;;;;17.55;12.27;;;5.00;99.90;;;;;;5030384;28;20129;-69
2023/01/08 00:06:11;;;;;;;18.95;12.20;;;5.00;99.90;;;;;;5027062;28;20033;-69
2023/01/08 00:08:38;;;;;;;20.13;13.00;;;5.00;99.90;;;;;;5014246;28;20534;-68
2023/01/08 00:11:06;;;;;;;22.90;13.90;;;5.00;99.90;;;;;;5031472;28;20067;-67
2023/01/08 00:13:33;;;;;;;20.67;12.43;;;5.00;99.90;;;;;;5030377;28;20131;-68
2023/01/08 00:16:14;;;;;;;19.80;12.30;;;5.00;99.90;;;;;;5030966;28;20092;-69
2023/01/08 00:18:42;;;;;;;21.52;13.20;;;5.00;99.90;;;;;;5019698;28;20052;-68
2023/01/08 00:21:10;;;;;;;17.83;12.25;;;5.00;99.90;;;;;;5013731;28;20041;-68
2023/01/08 00:23:38;;;;;;;20.50;13.05;;;5.00;99.90;;;;;;5029821;28;20048;-67
2023/01/08 00:26:08;;;;;;;20.75;12.63;;;5.00;99.90;;;;;;5031359;28;20561;-67
2023/01/08 00:28:36;;;;;;;20.83;12.80;;;5.10;99.90;;;;;;5020151;28;20491;-67
2023/01/08 00:31:05;;;;;;;19.13;12.95;;;5.00;99.90;;;;;;4993271;28;20100;-68
2023/01/08 00:33:34;;;;;;;20.70;13.52;;;5.10;99.90;;;;;;5025348;28;20488;-68
2023/01/08 00:36:10;;;;;;;20.80;13.38;;;5.00;99.90;;;;;;5029575;28;20460;-69
2023/01/08 00:38:37;;;;;;;21.83;13.43;;;5.00;99.90;;;;;;5029040;28;20049;-68
2023/01/08 00:41:05;;;;;;;21.48;12.88;;;5.00;99.90;;;;;;5030933;28;20037;-68
2023/01/08 00:43:32;;;;;;;22.05;14.30;;;5.00;99.90;;;;;;5030772;28;20492;-68
2023/01/08 00:45:59;;;;;;;22.42;13.88;;;5.00;99.90;;;;;;5009954;28;20516;-70
2023/01/08 00:48:27;;;;;;;20.73;13.50;;;4.90;99.90;;;;;;5028947;28;20042;-70
2023/01/08 00:50:54;;;;;;;22.25;12.95;;;4.90;99.90;;;;;;5029166;28;20547;-68
2023/01/08 00:53:22;;;;;;;19.33;12.38;;;4.90;99.90;;;;;;5029418;28;20053;-68
2023/01/08 00:55:49;;;;;;;20.73;13.10;;;4.90;99.90;;;;;;5030336;28;20049;-71
2023/01/08 00:58:17;;;;;;;18.35;11.98;;;4.90;99.90;;;;;;5021917;28;20113;-70
2023/01/08 01:00:44;;;;;;;20.33;12.68;;;4.90;99.90;;;;;;5028342;28;20044;-68
2023/01/08 01:03:11;;;;;;;18.10;11.30;;;4.90;99.90;;;;;;5009293;28;20053;-68
2023/01/08 01:05:38;;;;;;;20.42;12.52;;;4.90;99.90;;;;;;5025719;28;20439;-69
2023/01/08 01:08:06;;;;;;;21.75;13.10;;;4.80;99.90;;;;;;5013113;28;20061;-67
2023/01/08 01:10:33;;;;;;;20.02;12.23;;;4.80;99.90;;;;;;5028660;28;20041;-68
2023/01/08 01:13:00;;;;;;;19.85;13.25;;;4.80;99.90;;;;;;5012276;28;20045;-69
2023/01/08 01:15:28;;;;;;;21.17;13.60;;;4.70;99.90;;;;;;5029884;28;20049;-67
2023/01/08 01:17:55;;;;;;;18.83;12.48;;;4.70;99.90;;;;;;5029865;28;20045;-68
2023/01/08 01:20:22;;;;;;;20.33;12.90;;;4.60;99.90;;;;;;5012516;28;20504;-66
2023/01/08 01:22:50;;;;;;;21.30;13.18;;;4.60;99.90;;;;;;5012638;28;20048;-67
2023/01/08 01:25:17;;;;;;;20.55;12.57;;;4.50;99.90;;;;;;5027927;28;20045;-68
2023/01/08 01:27:44;;;;;;;17.95;12.68;;;4.50;99.90;;;;;;5022867;28;20064;-67
2023/01/08 01:30:12;;;;;;;20.27;12.35;;;4.50;99.90;;;;;;4995811;28;20064;-67
2023/01/08 01:32:39;;;;;;;19.63;12.85;;;4.50;99.90;;;;;;5014632;28;20401;-67
2023/01/08 01:35:07;;;;;;;24.60;14.63;;;4.50;99.90;;;;;;5028143;28;20107;-69
2023/01/08 01:37:34;;;;;;;32.42;18.23;;;4.50;99.90;;;;;;5028728;28;20511;-69
2023/01/08 01:40:01;;;;;;;19.17;12.48;;;4.50;99.90;;;;;;5027410;28;20045;-68
2023/01/08 01:42:42;;;;;;;19.95;12.90;;;4.50;99.90;;;;;;5014163;28;20034;-69
2023/01/08 01:45:22;;;;;;;20.02;12.32;;;4.50;99.90;;;;;;5010240;28;20065;-69
2023/01/08 01:48:05;;;;;;;18.15;12.02;;;4.40;99.90;;;;;;5028537;28;20060;-68
2023/01/08 01:50:36;;;;;;;22.42;12.32;;;4.50;99.90;;;;;;5030017;28;20353;-68
2023/01/08 01:53:06;;;;;;;19.77;12.27;;;4.50;99.90;;;;;;5020261;28;20077;-68
2023/01/08 01:55:36;;;;;;;20.20;12.68;;;4.50;99.90;;;;;;5023875;28;20627;-68
2023/01/08 01:58:13;;;;;;;22.30;12.90;;;4.50;99.90;;;;;;5004153;28;20393;-68
2023/01/08 02:00:41;;;;;;;20.17;12.68;;;4.50;99.90;;;;;;5007216;28;20044;-69
2023/01/08 02:03:13;;;;;;;19.60;12.43;;;4.40;99.90;;;;;;5018964;28;20066;-68
2023/01/08 02:06:10;;;;;;;;;;;4.50;99.90;;;;;;5020994;28;20141;-68
2023/01/08 02:09:01;;;;;;;18.67;11.63;;;4.50;99.90;;;;;;5015775;28;19928;-69
2023/01/08 02:12:18;;;;;;;17.38;11.13;;;4.50;99.90;;;;;;5015972;28;20392;-68
2023/01/08 02:14:51;;;;;;;19.20;12.30;;;4.40;99.90;;;;;;5015779;28;20140;-69
2023/01/08 02:17:28;;;;;;;18.35;11.68;;;4.40;99.90;;;;;;5022752;28;20042;-69
2023/01/08 02:20:08;;;;;;;21.35;13.25;;;4.40;99.90;;;;;;5025052;28;20492;-69
2023/01/08 02:22:38;;;;;;;20.25;12.52;;;4.50;99.90;;;;;;5034203;28;20049;-69
2023/01/08 02:25:29;;;;;;;20.17;12.23;;;4.40;99.90;;;;;;5026344;28;20152;-67
2023/01/08 02:28:00;;;;;;;18.65;11.45;;;4.40;99.90;;;;;;5019957;28;20045;-68
2023/01/08 02:30:29;;;;;;;18.98;12.15;;;4.40;99.90;;;;;;5027208;28;20465;-67
2023/01/08 02:32:56;;;;;;;19.58;12.30;;;4.40;99.90;;;;;;5027220;28;20057;-68
2023/01/08 02:35:32;;;;;;;20.67;12.13;;;4.40;99.90;;;;;;5026807;28;20103;-69
2023/01/08 02:37:59;;;;;;;18.33;12.40;;;4.40;99.90;;;;;;5011757;28;20042;-68
2023/01/08 02:40:37;;;;;;;21.13;12.60;;;4.40;99.90;;;;;;5020820;28;20048;-68
2023/01/08 02:43:21;;;;;;;17.70;11.52;;;4.40;99.90;;;;;;5019178;28;20420;-69
2023/01/08 02:45:59;;;;;;;19.75;12.43;;;4.40;99.90;;;;;;5015441;28;20041;-69
2023/01/08 02:48:42;;;;;;;21.10;12.50;;;4.40;99.90;;;;;;5023192;28;20052;-67
2023/01/08 02:51:16;;;;;;;18.92;11.77;;;4.50;99.90;;;;;;5012540;28;20477;-67
2023/01/08 02:53:47;;;;;;;18.70;12.00;;;4.50;99.90;;;;;;5021523;28;20054;-68
2023/01/08 02:56:19;;;;;;;23.73;12.82;;;4.50;99.90;;;;;;5029711;28;20045;-67
2023/01/08 02:58:49;;;;;;;19.67;12.50;;;4.50;99.90;;;;;;5020806;28;20473;-67
2023/01/08 03:01:17;;;;;;;19.80;12.02;;;4.50;99.90;;;;;;5027968;28;20049;-68
2023/01/08 03:03:52;;;;;;;19.88;12.00;;;4.50;99.90;;;;;;5023995;28;20056;-70
2023/01/08 03:06:21;;;;;;;18.52;11.93;;;4.50;99.90;;;;;;5020939;28;20492;-69
2023/01/08 03:08:51;;;;;;;19.65;11.82;;;4.50;99.90;;;;;;5026003;28;20448;-68
2023/01/08 03:11:21;;;;;;;18.30;12.18;;;4.50;99.90;;;;;;5014103;28;20041;-70
2023/01/08 03:14:16;;;;;;;18.90;12.48;;;4.50;99.90;;;;;;5014122;28;20049;-70
2023/01/08 03:16:50;;;;;;;16.65;10.85;;;4.60;99.90;;;;;;5027667;28;20099;-68
2023/01/08 03:19:22;;;;;;;19.52;12.18;;;4.60;99.90;;;;;;5012819;28;20053;-68
2023/01/08 03:21:51;;;;;;;19.05;11.43;;;4.60;99.90;;;;;;5019657;28;20525;-68
2023/01/08 03:24:22;;;;;;;19.33;12.38;;;4.60;99.90;;;;;;5028991;28;20045;-68
2023/01/08 03:26:53;;;;;;;18.20;12.07;;;4.60;99.90;;;;;;5030747;28;20037;-68
2023/01/08 03:29:23;;;;;;;18.42;11.75;;;4.60;99.90;;;;;;5028865;28;20044;-69
2023/01/08 03:31:55;;;;;;;17.13;11.32;;;4.60;99.90;;;;;;5030808;28;20046;-68
2023/01/08 03:34:25;;;;;;;18.42;11.93;;;4.70;99.90;;;;;;5029196;28;20041;-69
2023/01/08 03:36:56;;;;;;;19.95;12.35;;;4.70;99.90;;;;;;5028118;28;20439;-70
2023/01/08 03:39:29;;;;;;;18.05;11.13;;;4.70;99.90;;;;;;5011226;28;20528;-69
2023/01/08 03:42:01;;;;;;;17.75;11.20;;;4.70;99.90;;;;;;5025024;28;20041;-68
2023/01/08 03:44:28;;;;;;;20.58;11.90;;;4.70;99.90;;;;;;5012323;28;20046;-67
2023/01/08 03:46:57;;;;;;;18.83;11.40;;;4.70;99.90;;;;;;5020893;28;20041;-67
2023/01/08 03:49:27;;;;;;;18.90;11.95;;;4.60;99.90;;;;;;5009008;28;20038;-68
2023/01/08 03:51:55;;;;;;;16.98;11.85;;;4.60;99.90;;;;;;5023982;28;20582;-68
2023/01/08 03:54:27;;;;;;;17.50;11.35;;;4.60;99.90;;;;;;5001780;28;20563;-67
2023/01/08 03:56:55;;;;;;;19.20;11.95;;;4.60;99.90;;;;;;5024372;28;20053;-69
2023/01/08 03:59:22;;;;;;;19.48;11.25;;;4.60;99.90;;;;;;5029936;28;20127;-67
2023/01/08 04:01:49;;;;;;;19.52;12.15;;;4.60;99.90;;;;;;5031287;28;20046;-68
2023/01/08 04:04:17;;;;;;;17.65;11.73;;;4.60;99.90;;;;;;5031401;28;20555;-68
2023/01/08 04:06:44;;;;;;;19.23;11.15;;;4.70;99.90;;;;;;5031438;28;20467;-68
2023/01/08 04:09:12;;;;;;;18.13;12.07;;;4.70;99.90;;;;;;5014541;28;20462;-69
2023/01/08 04:11:39;;;;;;;17.70;11.68;;;4.70;99.90;;;;;;5003047;28;20065;-69
2023/01/08 04:14:06;;;;;;;15.82;10.25;;;4.80;99.90;;;;;;5027126;28;20147;-69
2023/01/08 04:16:34;;;;;;;17.80;10.73;;;4.80;99.90;;;;;;5029413;28;20041;-68
2023/01/08 04:19:01;;;;;;;17.83;11.02;;;4.90;99.90;;;;;;5016426;28;20064;-68
2023/01/08 04:21:28;;;;;;;19.17;10.82;;;4.80;99.90;;;;;;5015844;28;20507;-69
2023/01/08 04:23:56;;;;;;;15.85;10.50;;;4.90;99.90;;;;;;5030057;28;20455;-68
2023/01/08 04:26:23;;;;;;;17.23;11.38;;;4.90;99.90;;;;;;5013347;28;20428;-68
2023/01/08 04:28:50;;;;;;;16.58;11.45;;;4.80;99.90;;;;;;5030266;28;20455;-68
2023/01/08 04:31:18;;;;;;;15.45;10.23;;;4.90;99.90;;;;;;5025361;28;20064;-68
2023/01/08 04:33:45;;;;;;;15.88;10.25;;;4.80;99.90;;;;;;5027896;28;20076;-71
2023/01/08 04:36:13;;;;;;;16.60;10.45;;;4.80;99.90;;;;;;5018507;28;20405;-68
2023/01/08 04:38:40;;;;;;;15.52;10.50;;;4.80;99.90;;;;;;5008694;28;20111;-68
2023/01/08 04:41:07;;;;;;;18.48;11.05;;;4.80;99.90;;;;;;5012810;28;20054;-68
2023/01/08 04:43:34;;;;;;;16.20;10.30;;;4.80;99.90;;;;;;5025807;28;20041;-68
2023/01/08 04:46:06;;;;;;;18.50;10.95;;;4.80;99.90;;;;;;5011974;28;20053;-68
2023/01/08 04:48:33;;;;;;;16.27;10.25;;;4.80;99.90;;;;;;5027684;28;20034;-68
2023/01/08 04:51:02;;;;;;;17.67;11.23;;;4.90;99.90;;;;;;5007684;28;20103;-68
2023/01/08 04:53:33;;;;;;;16.70;10.68;;;4.90;99.90;;;;;;5005046;28;20396;-68
2023/01/08 04:56:08;;;;;;;18.17;11.13;;;4.90;99.90;;;;;;5021862;28;20477;-68
2023/01/08 04:58:36;;;;;;;16.90;11.23;;;5.00;99.90;;;;;;5021463;28;20072;-69
2023/01/08 05:01:18;;;;;;;18.13;10.98;;;5.00;99.90;;;;;;5001031;28;20523;-69
2023/01/08 05:03:46;;;;;;;17.92;10.90;;;5.00;99.90;;;;;;5019740;28;20048;-68
2023/01/08 05:06:13;;;;;;;16.27;10.98;;;5.10;99.90;;;;;;5027073;28;20045;-69
2023/01/08 05:08:41;;;;;;;15.90;10.27;;;5.10;99.90;;;;;;5011662;28;20041;-69
2023/01/08 05:11:08;;;;;;;16.77;11.07;;;5.10;99.90;;;;;;5029933;28;20057;-68
2023/01/08 05:13:35;;;;;;;15.77;10.05;;;5.20;99.90;;;;;;4991536;28;20053;-68
2023/01/08 05:16:03;;;;;;;16.67;11.05;;;5.20;99.90;;;;;;5010511;28;20052;-69
2023/01/08 05:18:30;;;;;;;16.58;11.27;;;5.20;99.90;;;;;;5029352;28;20171;-69
2023/01/08 05:21:03;;;;;;;17.88;10.80;;;5.20;99.90;;;;;;5010479;28;20045;-69
2023/01/08 05:23:32;;;;;;;15.05;10.95;;;5.10;99.90;;;;;;5029910;28;20113;-69
2023/01/08 05:26:01;;;;;;;15.85;11.35;;;5.10;99.90;;;;;;5027970;28;20048;-68
2023/01/08 05:28:29;;;;;;;18.00;11.85;;;5.20;99.90;;;;;;5029844;28;20076;-68
2023/01/08 05:30:56;;;;;;;16.77;11.48;;;5.20;99.90;;;;;;5011815;28;20144;-68
2023/01/08 05:33:24;;;;;;;17.83;11.80;;;5.10;99.90;;;;;;5027040;28;20146;-68
2023/01/08 05:35:52;;;;;;;17.38;11.98;;;5.10;99.90;;;;;;5012161;28;20049;-68
2023/01/08 05:38:19;;;;;;;17.73;11.48;;;5.10;99.90;;;;;;5029572;28;20045;-69
2023/01/08 05:40:46;;;;;;;18.48;11.25;;;5.10;99.90;;;;;;5028171;28;20436;-68
2023/01/08 05:43:14;;;;;;;18.83;11.93;;;5.20;99.90;;;;;;5029139;28;20496;-68
2023/01/08 05:45:41;;;;;;;16.30;11.30;;;5.20;99.90;;;;;;5027058;28;20053;-67
2023/01/08 05:48:08;;;;;;;17.80;12.02;;;5.10;99.90;;;;;;5028327;28;20064;-68
2023/01/08 05:50:35;;;;;;;18.85;11.30;;;5.20;99.90;;;;;;5028420;28;20073;-68
2023/01/08 05:53:07;;;;;;;16.25;11.30;;;5.20;99.90;;;;;;5029573;28;20471;-67
2023/01/08 05:55:34;;;;;;;19.15;12.25;;;5.10;99.90;;;;;;5026535;28;20465;-69
2023/01/08 05:58:05;;;;;;;17.23;12.07;;;5.20;99.90;;;;;;5027818;28;20065;-67
2023/01/08 06:00:33;;;;;;;17.25;11.68;;;5.20;99.90;;;;;;5028045;28;20045;-67
2023/01/08 06:03:00;;;;;;;17.00;12.40;;;5.20;99.90;;;;;;5028552;28;20424;-67
2023/01/08 06:05:30;;;;;;;16.27;11.63;;;5.20;99.90;;;;;;5027975;28;20057;-67
2023/01/08 06:07:58;;;;;;;15.80;11.65;;;5.20;99.90;;;;;;5029138;28;20038;-67
2023/01/08 06:10:25;;;;;;;15.38;11.15;;;5.20;99.90;;;;;;5027972;28;20143;-68
2023/01/08 06:12:52;;;;;;;15.52;11.40;;;5.20;99.90;;;;;;5027992;28;20510;-68
2023/01/08 06:15:20;;;;;;;16.65;11.50;;;5.20;99.90;;;;;;5029257;28;20460;-68
2023/01/08 06:17:47;;;;;;;17.95;11.90;;;5.20;99.90;;;;;;5027719;28;20038;-67
2023/01/08 06:20:14;;;;;;;16.88;11.65;;;5.20;99.90;;;;;;5029135;28;20046;-67
2023/01/08 06:22:42;;;;;;;17.73;11.52;;;5.20;99.90;;;;;;5028581;28;20049;-67
2023/01/08 06:25:09;;;;;;;16.13;11.40;;;5.20;99.90;;;;;;5028153;28;20053;-69
2023/01/08 06:27:36;;;;;;;17.58;11.73;;;5.20;99.90;;;;;;5029254;28;20049;-68
2023/01/08 06:30:08;;;;;;;17.67;11.73;;;5.30;99.90;;;;;;5015026;28;20127;-68
2023/01/08 06:32:35;;;;;;;17.13;11.63;;;5.30;99.90;;;;;;5015611;28;20165;-68
2023/01/08 06:35:03;;;;;;;16.90;11.43;;;5.30;99.90;;;;;;5014936;28;20061;-68
2023/01/08 06:37:30;;;;;;;16.17;10.95;;;5.30;99.90;;;;;;5032224;28;20476;-68
2023/01/08 06:39:57;;;;;;;16.63;10.60;;;5.30;99.90;;;;;;5015290;28;20512;-68
2023/01/08 06:42:24;;;;;;;16.27;11.02;;;5.30;99.90;;;;;;5027753;28;20033;-68
2023/01/08 06:44:51;;;;;;;16.50;10.52;;;5.30;99.90;;;;;;4993292;28;20084;-68
2023/01/08 06:47:19;;;;;;;16.13;10.75;;;5.30;99.90;;;;;;5028185;28;20038;-69
2023/01/08 06:49:46;;;;;;;18.15;11.65;;;5.40;99.90;;;;;;5003433;28;20701;-69
2023/01/08 06:52:13;;;;;;;18.60;11.93;;;5.40;99.90;;;;;;5013170;28;20060;-68
2023/01/08 06:54:40;;;;;;;16.00;11.02;;;5.40;99.90;;;;;;5017629;28;20092;-70
2023/01/08 06:57:08;;;;;;;16.45;10.98;;;5.50;99.90;;;;;;5026107;28;20072;-69
2023/01/08 06:59:35;;;;;;;16.52;11.10;;;5.50;99.90;;;;;;5030836;28;20492;-68
2023/01/08 07:02:02;;;;;;;14.88;11.07;;;5.40;99.90;;;;;;5009547;28;20682;-69
2023/01/08 07:04:29;;;;;;;17.60;11.52;;;5.40;99.90;;;;;;5023425;28;20136;-68
2023/01/08 07:06:57;;;;;;;14.95;11.10;;;5.50;99.90;;;;;;5025560;28;20068;-68
2023/01/08 07:09:24;;;;;;;15.85;10.57;;;5.50;99.90;;;;;;5015218;28;20473;-69
2023/01/08 07:11:51;;;;;;;15.85;10.90;;;5.50;99.90;;;;;;5025593;28;20128;-70
2023/01/08 07:14:18;;;;;;;18.00;11.02;;;5.50;99.90;;;;;;5015491;28;20053;-68
2023/01/08 07:16:46;;;;;;;19.13;11.55;;;5.60;99.90;;;;;;5029524;28;20053;-69
2023/01/08 07:19:13;;;;;;;17.63;12.10;;;5.50;99.90;;;;;;5030830;28;20060;-69
2023/01/08 07:21:40;;;;;;;16.77;11.13;;;5.50;99.90;;;;;;5024600;28;20090;-69
2023/01/08 07:24:08;;;;;;;15.75;10.90;;;5.50;99.90;;;;;;5019400;28;20567;-68
2023/01/08 07:26:35;;;;;;;15.90;10.27;;;5.60;99.90;;;;;;5011429;28;20149;-69
2023/01/08 07:29:03;;;;;;;16.25;10.88;;;5.60;99.90;;;;;;5002767;28;20045;-69
2023/01/08 07:31:30;;;;;;;27.05;12.60;;;5.60;99.90;;;;;;5006357;28;20501;-69
2023/01/08 07:33:58;;;;;;;17.45;12.18;;;5.60;99.90;;;;;;5020594;28;20428;-69
2023/01/08 07:36:25;;;;;;;15.32;9.93;;;5.60;99.90;;;;;;5026272;28;20045;-70
2023/01/08 07:38:52;;;;;;;15.63;10.18;;;5.60;99.90;;;;;;4990573;28;20230;-68
2023/01/08 07:41:20;;;;;;;16.55;10.13;;;5.60;99.90;;;;;;5014873;28;20052;-69
2023/01/08 07:43:47;;;;;;;16.63;10.38;;;5.60;99.90;;;;;;5027355;28;20099;-69
2023/01/08 07:46:15;;;;;;;14.65;9.88;;;5.50;99.90;;;;;;5016823;28;20493;-69
2023/01/08 07:48:42;;;;;;;14.98;10.23;;;5.60;99.90;;;;;;4997020;28;20081;-70
2023/01/08 07:51:10;;;;;;;15.35;9.85;;;5.60;99.90;;;;;;5026777;28;20062;-69
2023/01/08 07:53:37;;;;;;;16.35;10.45;;;5.50;99.90;;;;;;5028841;28;20132;-69
2023/01/08 07:56:07;;;;;;;17.20;10.88;;;5.50;99.90;;;;;;5018539;28;20631;-69
2023/01/08 07:58:37;;;;;;;16.75;10.18;;;5.50;99.90;;;;;;5028352;28;20055;-67
2023/01/08 08:01:09;;;;;;;14.98;9.60;;;5.60;99.90;;;;;;5021648;28;20050;-68
2023/01/08 08:03:38;;;;;;;15.30;10.07;;;5.70;99.90;;;;;;5012460;28;20049;-67
2023/01/08 08:06:06;;;;;;;15.32;10.23;;;5.60;99.90;;;;;;5029949;28;20038;-67
2023/01/08 08:08:33;;;;;;;15.40;10.30;;;5.60;99.90;;;;;;5029786;28;20053;-67
2023/01/08 08:11:01;;;;;;;14.93;10.20;;;5.70;99.90;;;;;;5030722;28;20358;-67
2023/01/08 08:13:28;;;;;;;15.25;10.32;;;5.80;99.90;;;;;;5030760;28;20033;-67
2023/01/08 08:16:00;;;;;;;16.20;10.25;;;5.80;99.90;;;;;;5029554;28;20095;-68
2023/01/08 08:18:28;;;;;;;15.73;10.27;;;5.70;99.90;;;;;;5013567;28;20045;-69
2023/01/08 08:20:55;;;;;;;14.88;9.80;;;5.80;99.90;;;;;;5043726;28;20033;-68
2023/01/08 08:23:23;;;;;;;13.98;10.05;;;5.90;99.90;;;;;;5031197;28;20120;-69
2023/01/08 08:25:50;;;;;;;14.45;9.77;;;6.00;99.90;;;;;;5030943;28;20136;-68
2023/01/08 08:28:18;;;;;;;16.75;10.43;;;6.10;99.90;;;;;;5021747;28;20521;-68
2023/01/08 08:30:46;;;;;;;14.85;9.73;;;6.10;99.90;;;;;;5030499;28;20207;-68
2023/01/08 08:33:13;;;;;;;16.60;10.27;;;6.20;99.90;;;;;;5013281;28;20045;-68
2023/01/08 08:35:46;;;;;;;15.25;10.02;;;6.20;99.90;;;;;;5029247;28;20042;-69
2023/01/08 08:38:14;;;;;;;14.13;9.50;;;6.20;99.90;;;;;;5029484;28;20508;-68
2023/01/08 08:40:41;;;;;;;13.63;9.23;;;6.30;99.90;;;;;;5019343;28;20042;-67
2023/01/08 08:43:09;;;;;;;15.70;10.30;;;6.30;99.90;;;;;;5030721;28;20034;-67
2023/01/08 08:45:36;;;;;;;14.65;10.10;;;6.30;99.90;;;;;;5028939;28;20515;-68
2023/01/08 08:48:07;;;;;;;14.82;10.45;;;6.40;99.90;;;;;;5012437;28;20096;-68
2023/01/08 08:50:35;;;;;;;15.50;10.07;;;6.50;99.90;;;;;;5029366;28;20076;-68
2023/01/08 08:53:04;;;;;;;13.82;10.13;;;6.50;99.90;;;;;;5028242;28;20046;-67
2023/01/08 08:55:32;;;;;;;14.77;9.48;;;6.60;99.90;;;;;;5028993;28;20057;-68
2023/01/08 08:58:04;;;;;;;14.90;10.10;;;6.70;99.90;;;;;;5026905;28;20049;-68
2023/01/08 09:00:32;;;;;;;15.23;10.23;;;6.80;99.90;;;;;;5010658;28;20042;-69
2023/01/08 09:02:59;;;;;;;14.93;9.88;;;6.80;99.90;;;;;;5028362;28;20064;-68
2023/01/08 09:05:27;;;;;;;15.45;9.30;;;6.90;99.90;;;;;;5029766;28;20563;-69
2023/01/08 09:07:55;;;;;;;15.13;10.00;;;7.00;99.90;;;;;;5030287;28;20389;-69
2023/01/08 09:10:22;;;;;;;14.95;9.65;;;7.10;99.90;;;;;;5028373;28;20068;-68
2023/01/08 09:12:52;;;;;;;13.85;9.27;;;7.10;99.90;;;;;;5012550;28;20168;-68
2023/01/08 09:15:20;;;;;;;13.23;8.75;;;7.20;99.90;;;;;;5011470;28;20057;-70
2023/01/08 09:17:55;;;;;;;13.07;8.48;;;7.30;99.90;;;;;;5023098;28;20092;-68
2023/01/08 09:20:24;;;;;;;15.23;9.95;;;7.50;99.90;;;;;;5028588;28;20045;-68
2023/01/08 09:22:51;;;;;;;12.90;9.20;;;7.60;99.90;;;;;;5025045;28;20415;-68
2023/01/08 09:25:19;;;;;;;12.68;9.07;;;7.70;99.90;;;;;;5025013;28;20043;-68
2023/01/08 09:27:46;;;;;;;11.60;8.40;;;7.80;99.90;;;;;;5027024;28;20041;-67
2023/01/08 09:30:13;;;;;;;13.68;8.73;;;7.90;99.90;;;;;;5029462;28;20057;-68
2023/01/08 09:32:41;;;;;;;13.07;9.10;;;8.00;99.90;;;;;;5027778;28;20052;-68
2023/01/08 09:35:08;;;;;;;13.68;8.55;;;8.00;99.90;;;;;;5025893;28;20629;-70
2023/01/08 09:37:36;;;;;;;13.68;8.98;;;8.20;99.90;;;;;;5025851;28;20069;-68
2023/01/08 09:40:03;;;;;;;14.93;10.50;;;8.20;99.90;;;;;;5027774;28;20124;-69
2023/01/08 09:42:32;;;;;;;13.57;9.02;;;8.30;99.90;;;;;;5029445;28;20124;-68
2023/01/08 09:45:02;;;;;;;11.40;8.10;;;8.30;99.90;;;;;;5028139;28;20041;-68
2023/01/08 09:47:39;;;;;;;13.02;8.90;;;8.40;99.90;;;;;;5011111;28;20037;-69
2023/01/08 09:50:12;;;;;;;12.60;8.23;;;8.50;99.90;;;;;;5028001;28;20433;-69
2023/01/08 09:52:39;;;;;;;12.68;8.20;;;8.50;99.90;;;;;;5029033;28;20045;-68
2023/01/08 09:55:14;;;;;;;10.63;7.43;;;8.60;99.90;;;;;;5009357;28;20492;-69
2023/01/08 09:57:42;;;;;;;;;;;8.60;99.90;;;;;;5012623;28;20038;-69
2023/01/08 10:00:14;;;;;;;12.43;7.70;;;8.50;99.90;;;;;;5022481;28;20012;-71
2023/01/08 10:02:43;;;;;;;10.90;7.80;;;8.50;99.90;;;;;;5026578;28;20151;-69
2023/01/08 10:05:14;;;;;;;10.15;7.50;;;8.50;99.90;;;;;;5017905;28;20124;-69
2023/01/08 10:07:43;;;;;;;13.70;8.65;;;8.50;99.90;;;;;;5024536;28;20543;-68
2023/01/08 10:10:26;;;;;;;12.68;8.15;;;8.50;99.90;;;;;;5026924;28;20037;-68
2023/01/08 10:12:54;;;;;;;11.57;8.13;;;8.50;99.90;;;;;;5000718;28;20133;-68
2023/01/08 10:15:22;;;;;;;9.32;6.57;;;8.50;99.90;;;;;;5026658;28;20044;-67
2023/01/08 10:18:03;;;;;;;12.63;6.80;;;8.50;99.90;;;;;;5018327;28;20136;-71
2023/01/08 10:20:32;;;;;;;10.02;7.22;;;8.40;99.90;;;;;;5025075;28;20133;-68
2023/01/08 10:23:14;;;;;;;13.18;8.05;;;8.30;99.90;;;;;;5027188;28;20473;-68
2023/01/08 10:25:54;;;;;;;10.07;7.72;;;8.30;99.90;;;;;;5026721;28;20538;-67
2023/01/08 10:28:36;;;;;;;13.25;7.68;;;8.20;99.90;;;;;;5024812;28;20492;-68
2023/01/08 10:31:05;;;;;;;11.23;8.18;;;8.20;99.90;;;;;;5028789;28;20050;-68
2023/01/08 10:33:42;;;;;;;14.88;8.18;;;8.20;99.90;;;;;;5029179;28;20033;-66
2023/01/08 10:36:13;;;;;;;11.98;7.28;;;8.10;99.90;;;;;;5028716;28;20050;-69
2023/01/08 10:38:47;;;;;;;12.05;7.82;;;8.10;99.90;;;;;;5027947;28;20072;-68
2023/01/08 10:41:16;;;;;;;14.80;9.48;;;8.00;99.90;;;;;;5027395;28;20054;-67
2023/01/08 10:44:21;;;;;;;11.27;7.53;;;8.10;99.90;;;;;;5024578;28;20045;-66
2023/01/08 10:46:54;;;;;;;12.73;8.07;;;8.20;99.90;;;;;;4966660;28;20046;-67
2023/01/08 10:49:37;;;;;;;11.93;7.30;;;8.10;99.90;;;;;;4951109;28;20206;-67
2023/01/08 10:52:19;;;;;;;11.00;7.80;;;8.00;99.90;;;;;;4963614;28;20065;-67
2023/01/08 10:54:46;;;;;;;11.47;7.60;;;8.00;99.90;;;;;;4951317;28;20062;-69
2023/01/08 10:57:20;;;;;;;13.55;8.65;;;8.00;99.90;;;;;;4933525;28;20054;-69
2023/01/08 10:59:47;;;;;;;13.98;9.05;;;8.00;99.90;;;;;;4940043;29;20143;-68
2023/01/08 11:02:29;;;;;;;10.90;7.30;;;8.20;99.90;;;;;;4965072;28;20487;-68
2023/01/08 11:04:58;;;;;;;13.80;8.52;;;8.10;99.90;;;;;;4966710;28;20601;-69
2023/01/08 11:07:26;;;;;;;14.45;8.43;;;8.00;99.90;;;;;;4934953;28;20050;-68
2023/01/08 11:09:54;;;;;;;13.77;8.60;;;8.00;99.90;;;;;;4949918;28;20112;-68
2023/01/08 11:12:30;;;;;;;13.63;9.30;;;8.00;99.90;;;;;;4936116;28;20482;-67
2023/01/08 11:14:58;;;;;;;12.30;8.43;;;7.90;99.90;;;;;;4953986;28;20065;-69
2023/01/08 11:17:26;;;;;;;13.02;8.20;;;7.90;99.90;;;;;;4970112;28;20414;-69
2023/01/08 11:19:54;;;;;;;12.30;7.88;;;7.90;99.90;;;;;;4977778;28;20463;-68
2023/01/08 11:22:23;;;;;;;12.05;7.75;;;8.00;99.90;;;;;;5031976;28;20531;-69
2023/01/08 11:24:52;;;;;;;12.65;7.88;;;7.90;99.90;;;;;;5026999;28;20046;-68
2023/01/08 11:27:35;;;;;;;20.90;8.80;;;7.80;99.90;;;;;;5032509;28;20500;-67
2023/01/08 11:30:13;;;;;;;14.13;9.27;;;7.80;99.90;;;;;;5032391;28;20061;-67
2023/01/08 11:33:01;;;;;;;12.70;8.32;;;7.90;99.90;;;;;;5032113;28;20045;-68
2023/01/08 11:35:48;;;;;;;11.90;8.23;;;7.80;99.90;;;;;;5025090;28;20057;-67
2023/01/08 11:38:16;;;;;;;12.38;8.23;;;7.80;99.90;;;;;;5031854;28;20420;-68
2023/01/08 11:40:51;;;;;;;10.88;7.72;;;7.90;99.90;;;;;;5030392;28;20542;-66
2023/01/08 11:43:39;;;;;;;13.15;8.05;;;7.80;99.90;;;;;;5031624;28;20053;-68
2023/01/08 11:46:52;;;;;;;16.05;8.93;;;7.70;99.90;;;;;;5029115;28;20045;-66
2023/01/08 11:49:44;;;;;;;14.63;8.60;;;7.70;99.90;;;;;;4928758;29;20055;-68
2023/01/08 11:52:30;;;;;;;;;;;7.70;99.90;;;;;;4953160;28;20534;-67
2023/01/08 11:55:11;;;;;;;17.25;10.05;;;7.70;99.90;;;;;;4952219;28;19922;-67
2023/01/08 11:57:56;;;;;;;20.52;12.93;;;7.60;99.90;;;;;;4964400;28;20912;-67
2023/01/08 12:01:00;;;;;;;18.98;12.63;;;7.60;99.90;;;;;;4953042;28;20104;-67
2023/01/08 12:03:35;;;;;;;13.63;9.30;;;7.60;99.90;;;;;;4962313;28;20517;-67
2023/01/08 12:06:32;;;;;;;14.02;9.27;;;7.60;99.90;;;;;;4953117;28;20043;-68
2023/01/08 12:09:22;;;;;;;14.80;9.20;;;7.60;99.90;;;;;;4950656;28;20138;-66
2023/01/08 12:12:16;;;;;;;19.35;12.48;;;7.60;99.90;;;;;;4940802;28;20050;-66
2023/01/08 12:15:04;;;;;;;16.63;11.35;;;7.70;99.90;;;;;;4959231;28;20055;-66
2023/01/08 12:18:08;;;;;;;18.10;10.75;;;7.70;99.90;;;;;;4953680;28;20400;-67
2023/01/08 12:20:37;;;;;;;15.00;9.95;;;7.70;99.90;;;;;;4960136;28;20569;-66
2023/01/08 12:23:36;;;;;;;16.35;9.90;;;7.80;99.90;;;;;;4957001;28;20125;-66
2023/01/08 12:26:15;;;;;;;14.23;8.20;;;7.80;99.90;;;;;;5026748;28;20523;-66
2023/01/08 12:28:42;;;;;;;13.32;9.52;;;7.80;99.90;;;;;;5013073;28;20076;-66
2023/01/08 12:31:24;;;;;;;15.02;8.07;;;7.80;99.90;;;;;;5029262;28;20112;-66
2023/01/08 12:34:04;;;;;;;16.65;9.15;;;7.80;99.90;;;;;;5030171;28;20056;-67
2023/01/08 12:36:42;;;;;;;17.20;9.80;;;7.90;99.90;;;;;;5030039;28;20057;-67
2023/01/08 12:39:14;;;;;;;17.45;9.50;;;7.90;99.90;;;;;;5020507;28;20128;-66
2023/01/08 12:41:44;;;;;;;13.50;8.77;;;8.00;99.90;;;;;;5027796;28;20152;-66
2023/01/08 12:44:14;;;;;;;13.52;9.35;;;8.10;99.90;;;;;;5029207;28;20058;-66
2023/01/08 12:46:44;;;;;;;14.85;9.10;;;8.10;99.90;;;;;;5028922;28;20045;-65
2023/01/08 12:49:24;;;;;;;18.88;9.80;;;8.20;99.90;;;;;;5018105;28;20051;-66
2023/01/08 12:52:00;;;;;;;13.45;8.50;;;8.20;99.90;;;;;;5030445;28;20120;-67
2023/01/08 12:54:30;;;;;;;14.10;9.10;;;8.30;99.90;;;;;;5031086;28;20531;-68
2023/01/08 12:57:06;;;;;;;20.45;13.15;;;8.40;99.90;;;;;;5021258;28;20037;-67
2023/01/08 12:59:40;;;;;;;15.02;9.45;;;8.50;99.90;;;;;;5028869;28;20529;-66
2023/01/08 13:02:22;;;;;;;12.85;8.32;;;8.50;99.90;;;;;;5011931;28;20108;-67